TimeEET,TemperatureF,Dew PointF,Humidity,Sea Level PressureIn,VisibilityMPH,Wind Direction,Wind SpeedMPH,Gust SpeedMPH,PrecipitationIn,Events,Conditions,WindDirDegrees,DateUTC
12:00 AM,69.8,35.6,28,29.95,-9999.0,NNW,15.0,-,N/A,,Clear,330,2013-03-16 22:00:00
1:00 AM,68.0,35.6,30,29.95,-9999.0,NNW,15.0,-,N/A,,Clear,330,2013-03-16 23:00:00
2:00 AM,67,35,20,29.95,6,NNW,13.8,,,,,340,2013-03-17 00:00:00
2:00 AM,66.2,35.6,32,29.95,-9999.0,NNW,13.8,-,N/A,,Clear,340,2013-03-17 00:00:00
3:00 AM,66.2,33.8,30,29.95,-9999.0,NNW,11.5,-,N/A,,Clear,330,2013-03-17 01:00:00
4:00 AM,64.4,30.2,28,29.95,-9999.0,NNW,11.5,-,N/A,,Clear,330,2013-03-17 02:00:00
5:00 AM,62.6,28.4,27,29.98,-9999.0,NNW,12.7,-,N/A,,Clear,330,2013-03-17 03:00:00
6:00 AM,60.8,26.6,27,29.98,-9999.0,NNW,13.8,-,N/A,,Clear,340,2013-03-17 04:00:00
7:00 AM,62.6,26.6,26,30.01,-9999.0,NNW,15.0,-,N/A,,Clear,330,2013-03-17 05:00:00
8:00 AM,64,28,15,30.04,4,North,13.8,,,,Blowing Sand,0,2013-03-17 06:00:00
8:00 AM,64.4,28.4,26,30.04,3.7,North,13.8,-,N/A,,Unknown,360,2013-03-17 06:00:00
9:00 AM,68.0,28.4,23,30.04,3.7,North,13.8,-,N/A,,Unknown,350,2013-03-17 07:00:00
10:00 AM,69.8,28.4,21,30.04,2.5,North,17.3,-,N/A,,Sand,360,2013-03-17 08:00:00
11:00 AM,71.6,28.4,20,30.04,1.6,North,16.1,-,N/A,,Sand,350,2013-03-17 09:00:00
12:00 PM,75.2,30.2,19,30.01,1.6,North,16.1,-,N/A,,Sand,360,2013-03-17 10:00:00
1:00 PM,77.0,28.4,17,29.98,3.7,NNW,13.8,-,N/A,,Unknown,340,2013-03-17 11:00:00
2:00 PM,78,29,8,29.95,5,North,13.8,,,,Blowing Sand,0,2013-03-17 12:00:00
2:00 PM,78.8,28.4,16,29.98,5.0,North,13.8,-,N/A,,Unknown,360,2013-03-17 12:00:00
3:00 PM,80.6,28.4,15,29.95,-9999.0,North,11.5,-,N/A,,Clear,360,2013-03-17 13:00:00
4:00 PM,78.8,30.2,17,29.95,-9999.0,North,11.5,-,N/A,,Clear,360,2013-03-17 14:00:00
5:00 PM,78.8,26.6,15,29.95,-9999.0,North,11.5,-,N/A,,Clear,350,2013-03-17 15:00:00
6:00 PM,75.2,30.2,19,29.95,5.0,North,15.0,-,N/A,,Unknown,360,2013-03-17 16:00:00
7:00 PM,73.4,28.4,19,29.98,5.0,North,13.8,-,N/A,,Unknown,360,2013-03-17 17:00:00
8:00 PM,71,29,12,29.98,6,NNW,9.2,,,,,340,2013-03-17 18:00:00
8:00 PM,69.8,30.2,23,29.98,-9999.0,NNW,9.2,-,N/A,,Clear,340,2013-03-17 18:00:00
9:00 PM,68.0,30.2,24,30.01,-9999.0,NNW,8.1,-,N/A,,Clear,330,2013-03-17 19:00:00
10:00 PM,66.2,30.2,26,30.01,-9999.0,NW,4.6,-,N/A,,Clear,310,2013-03-17 20:00:00
11:00 PM,64.4,32.0,30,30.01,-9999.0,NNW,6.9,-,N/A,,Clear,330,2013-03-17 21:00:00